Strona główna
Zdjęcia satelitarne 15-dni prognozyKlimatMeteorologia morska Cyklony Błyskawica LotniskoFAQ Gazetka O
Pogoda : Europa Afryka Ameryka Północna Ameryka Południowa Azja Australia-Oceania Inny
Języki Kontakt

Katowice, Polska

Pyrzowice

Szerokość geograficzna: 50-28-27N, Długość geograficzna: 019-04-48E, wysokość: 284 m


METAR: EPKT 011100Z 03007KT 8000 SCT003 BKN006 17/16 Q1014
short-TAF: EPKT 010934Z 0109/0118 36005KT 6000 BKN008 TEMPO 0109/0118 2000 BR SCT001 BKN002
long-TAF: przestarzały (19071 godziny)

czas: 13:11 (11:11 UTC)

Aktualna obserwacja pogody

Raport powstał 11 minut temu, godzina 11:00 UTC  
Wiatr 07 kt od północno-północny wschód
Temperatura 17°C
Wilgotność 94%
Ciśnienie 1014 hPa
Widzialność 8000 m
Rozproszone chmury na wysokości 300 ft
Przerywane chmury na wysokości 600 ft

Jednostka miary

Prognoza

Raport powstał 1 godzina i 26 minut temu, godzina 09:45 UTC  
Prognoza ważna od 01 godzina 09 UTC do 01 godzina 18 UTC
Wiatr 05 kt od północ
Widzialność 6000 m
Przerywane chmury na wysokości 800 ft
Przejściowo
od 01 godzina 09 UTC do 01 godzina 18 UTC
Widzialność 2000 m
Rozproszone chmury na wysokości 100 ft
Przerywane chmury na wysokości 200 ft
zamglenie
Informacje na tej stronie internetowej podlegają klauzuli o wyłączeniu odpowiedzialności
Pogoda : Europa Afryka Ameryka Północna Ameryka Południowa Azja Australia-Oceania Inny
Zdjęcia satelitarne 15-dni prognozyKlimatMeteorologia morska Cyklony Błyskawica LotniskoFAQ Języki Kontakt Gazetka O